Time;durP1;ratioP1;P1;durP2;ratioP2;P2;SDS_P1;SDS_P2;PMS_P1;PMS_P2;Temp;Humidity;BMP_temperature;BMP_pressure;BME280_temperature;BME280_humidity;BME280_pressure;Samples;Min_cycle;Max_cycle;Signal;HPM_P1;HPM_P2
2021/08/06 00:00:11;;;;;;;2.10;0.90;;;;;;;13.66;65.54;100936.81;5028997;28;20523;-68
2021/08/06 00:02:39;;;;;;;1.87;1.00;;;;;;;13.60;65.57;100942.69;5028679;28;20689;-69
2021/08/06 00:05:09;;;;;;;0.80;0.80;;;;;;;13.54;65.49;100928.81;5029135;28;20285;-69
2021/08/06 00:07:37;;;;;;;0.93;0.90;;;;;;;13.44;65.96;100922.38;5028633;28;20207;-69
2021/08/06 00:10:07;;;;;;;0.73;0.73;;;;;;;13.41;66.01;100917.22;5029156;28;20208;-69
2021/08/06 00:12:36;;;;;;;0.90;0.90;;;;;;;13.33;66.04;100909.72;5028924;28;20223;-69
2021/08/06 00:15:07;;;;;;;1.33;1.00;;;;;;;13.25;66.02;100901.38;5028696;28;20577;-69
2021/08/06 00:17:35;;;;;;;0.80;0.80;;;;;;;13.41;65.80;100933.41;5027575;28;20210;-68
2021/08/06 00:20:05;;;;;;;0.93;0.93;;;;;;;13.39;65.66;100928.13;5023714;28;20195;-69
2021/08/06 00:22:33;;;;;;;2.47;0.87;;;;;;;13.38;65.26;100920.16;5035978;28;20221;-69
2021/08/06 00:25:01;;;;;;;0.90;0.90;;;;;;;13.38;65.63;100933.66;5032016;28;20224;-70
2021/08/06 00:27:31;;;;;;;0.80;0.70;;;;;;;13.37;65.21;100924.69;5032408;28;20210;-69
2021/08/06 00:29:59;;;;;;;2.00;1.00;;;;;;;13.38;65.25;100929.13;5031623;28;20791;-69
2021/08/06 00:32:29;;;;;;;0.90;0.90;;;;;;;13.36;65.37;100925.69;5032153;28;20223;-69
2021/08/06 00:35:01;;;;;;;1.00;0.90;;;;;;;13.26;65.56;100913.88;5028765;28;20685;-69
2021/08/06 00:37:31;;;;;;;2.00;0.90;;;;;;;13.35;64.99;100924.81;5035678;28;20620;-69
2021/08/06 00:40:02;;;;;;;1.00;0.93;;;;;;;13.32;65.54;100922.34;5031946;28;20201;-69
2021/08/06 00:42:33;;;;;;;1.83;1.00;;;;;;;13.31;64.89;100917.94;5031258;28;20213;-69
2021/08/06 00:45:03;;;;;;;1.03;0.97;;;;;;;13.29;65.55;100925.28;5043518;28;20207;-69
2021/08/06 00:47:34;;;;;;;0.80;0.80;;;;;;;13.25;65.37;100921.13;5025649;28;20250;-69
2021/08/06 00:50:04;;;;;;;0.80;0.80;;;;;;;13.19;65.63;100920.72;5040635;28;20202;-70
2021/08/06 00:52:34;;;;;;;1.07;1.07;;;;;;;13.15;65.72;100914.66;5030631;28;20229;-69
2021/08/06 00:55:03;;;;;;;1.43;1.23;;;;;;;13.09;65.55;100923.19;5030241;28;20210;-72
2021/08/06 00:57:35;;;;;;;2.27;1.53;;;;;;;12.70;65.19;100865.94;5046742;28;20232;-69
2021/08/06 01:00:15;;;;;;;1.47;1.30;;;;;;;13.00;65.69;100924.75;5030378;28;20200;-69
2021/08/06 01:02:54;;;;;;;1.53;1.40;;;;;;;12.98;66.08;100931.25;5049704;28;20572;-69
2021/08/06 01:05:29;;;;;;;2.87;1.43;;;;;;;12.97;65.35;100929.53;5030334;28;20205;-69
2021/08/06 01:08:06;;;;;;;4.63;1.50;;;;;;;12.95;65.41;100935.03;5017675;28;20201;-69
2021/08/06 01:10:42;;;;;;;7.70;1.50;;;;;;;12.71;65.62;100891.91;5029610;28;20314;-69
2021/08/06 01:13:14;;;;;;;1.70;1.30;;;;;;;12.95;65.16;100939.56;5025454;28;20720;-69
2021/08/06 01:15:49;;;;;;;2.30;1.37;;;;;;;12.91;65.64;100935.38;5020318;28;20260;-69
2021/08/06 01:18:21;;;;;;;1.20;1.10;;;;;;;12.88;65.78;100935.63;5029505;28;20661;-69
2021/08/06 01:20:54;;;;;;;1.53;1.00;;;;;;;12.85;66.40;100941.22;5031599;28;20864;-69
2021/08/06 01:23:28;;;;;;;2.13;1.60;;;;;;;12.71;65.95;100926.94;5029829;28;20247;-69
2021/08/06 01:26:01;;;;;;;1.00;0.90;;;;;;;12.80;65.99;100929.91;5029902;28;20209;-70
2021/08/06 01:28:47;;;;;;;2.50;0.90;;;;;;;12.81;65.66;100939.72;5029515;28;20222;-69
2021/08/06 01:31:23;;;;;;;1.07;1.00;;;;;;;12.81;65.68;100942.41;5043002;28;20651;-69
2021/08/06 01:33:54;;;;;;;1.20;1.00;;;;;;;12.85;65.40;100930.41;5016051;28;20226;-69
2021/08/06 01:36:26;;;;;;;1.20;1.00;;;;;;;12.87;65.75;100933.91;5026668;28;20203;-69
2021/08/06 01:38:57;;;;;;;1.30;1.03;;;;;;;12.86;65.48;100932.19;5029274;28;20252;-70
2021/08/06 01:41:50;;;;;;;0.90;0.90;;;;;;;12.83;66.77;100943.16;5029983;28;20211;-69
2021/08/06 01:44:24;;;;;;;2.47;1.00;;;;;;;12.49;65.94;100886.38;5029819;28;20190;-70
2021/08/06 01:46:58;;;;;;;1.30;0.90;;;;;;;12.78;66.13;100945.34;5042692;28;20223;-69
2021/08/06 01:49:31;;;;;;;1.23;0.90;;;;;;;12.76;65.38;100948.16;5034806;28;20577;-70
2021/08/06 01:52:04;;;;;;;1.40;1.00;;;;;;;12.69;65.53;100936.97;5029213;28;20210;-69
2021/08/06 01:54:34;;;;;;;1.00;1.00;;;;;;;12.56;65.92;100930.75;5028671;28;20594;-69
2021/08/06 01:57:05;;;;;;;0.87;0.87;;;;;;;12.64;66.14;100944.53;5037159;28;20209;-69
2021/08/06 01:59:36;;;;;;;1.07;1.00;;;;;;;12.64;65.99;100952.63;5029284;28;20710;-69
2021/08/06 02:02:04;;;;;;;0.73;0.73;;;;;;;12.60;65.80;100952.94;5029053;28;20216;-69
2021/08/06 02:04:35;;;;;;;1.00;1.00;;;;;;;12.53;66.30;100957.91;5042849;28;20205;-69
2021/08/06 02:07:18;;;;;;;0.80;0.80;;;;;;;12.01;66.25;100875.50;5030439;28;20201;-69
2021/08/06 02:09:53;;;;;;;1.67;1.00;;;;;;;12.44;66.03;100954.03;5045689;28;20249;-69
2021/08/06 02:12:27;;;;;;;1.30;0.90;;;;;;;12.41;66.97;100953.41;5029204;28;20324;-68
2021/08/06 02:15:07;;;;;;;0.93;0.93;;;;;;;12.39;66.91;100947.28;5045245;28;20301;-68
2021/08/06 02:17:38;;;;;;;1.07;1.00;;;;;;;12.21;66.76;100943.19;5016944;28;20208;-68
2021/08/06 02:20:46;;;;;;;2.47;0.90;;;;;;;12.34;66.59;100957.53;5015826;28;20301;-68
2021/08/06 02:23:19;;;;;;;1.00;1.00;;;;;;;12.38;65.96;100969.78;5028623;28;20204;-69
2021/08/06 02:25:51;;;;;;;1.00;1.00;;;;;;;12.24;66.09;100951.06;5028597;28;20212;-68
2021/08/06 02:28:22;;;;;;;1.10;1.00;;;;;;;12.09;66.08;100943.09;5014619;28;20208;-69
2021/08/06 02:30:52;;;;;;;1.17;0.87;;;;;;;12.30;66.07;100977.56;5044866;28;20269;-69
2021/08/06 02:33:23;;;;;;;1.50;0.93;;;;;;;12.24;66.45;100975.28;5027554;28;20298;-68
2021/08/06 02:35:51;;;;;;;0.90;0.90;;;;;;;12.19;66.63;100975.63;5033979;28;20209;-68
2021/08/06 02:38:22;;;;;;;0.97;0.97;;;;;;;12.17;66.50;100968.63;5029694;28;20199;-68
2021/08/06 02:40:52;;;;;;;2.40;0.90;;;;;;;12.16;66.16;100964.22;5022069;28;20246;-68
2021/08/06 02:43:21;;;;;;;1.10;1.00;;;;;;;11.92;66.42;100924.59;5023858;28;20202;-69
2021/08/06 02:45:50;;;;;;;1.87;1.20;;;;;;;12.13;65.95;100963.47;5027590;28;20217;-68
2021/08/06 02:48:20;;;;;;;1.10;1.00;;;;;;;12.11;66.27;100953.78;5041593;28;20581;-68
2021/08/06 02:50:48;;;;;;;1.20;0.93;;;;;;;12.15;66.69;100962.47;5044167;28;20674;-68
2021/08/06 02:53:19;;;;;;;1.13;1.00;;;;;;;12.16;66.70;100964.22;5044858;28;20653;-69
2021/08/06 02:55:48;;;;;;;1.13;1.00;;;;;;;12.16;66.21;100956.13;5044598;28;20664;-69
2021/08/06 02:58:17;;;;;;;1.50;1.00;;;;;;;12.10;67.09;100950.22;5028287;28;20197;-69
2021/08/06 03:00:49;;;;;;;3.20;1.00;;;;;;;12.08;66.95;100941.38;5041778;28;20205;-68
2021/08/06 03:03:18;;;;;;;0.90;0.90;;;;;;;12.04;67.33;100931.81;5015080;28;20250;-68
2021/08/06 03:05:47;;;;;;;1.00;1.00;;;;;;;12.08;67.18;100930.63;5025291;28;20206;-69
2021/08/06 03:08:15;;;;;;;0.80;0.80;;;;;;;12.09;67.04;100943.09;5028877;28;20205;-69
2021/08/06 03:10:43;;;;;;;3.50;1.17;;;;;;;12.12;66.51;100942.88;5029625;28;20304;-69
2021/08/06 03:13:11;;;;;;;0.80;0.80;;;;;;;12.13;66.69;100933.84;5027036;28;20220;-68
2021/08/06 03:15:40;;;;;;;3.47;1.10;;;;;;;12.13;67.28;100930.28;5035243;28;20203;-68
2021/08/06 03:18:11;;;;;;;1.00;1.00;;;;;;;12.23;66.87;100935.88;5029304;28;20583;-68
2021/08/06 03:20:40;;;;;;;2.93;1.37;;;;;;;12.33;66.23;100945.03;5028377;28;20736;-68
2021/08/06 03:23:08;;;;;;;1.20;1.00;;;;;;;12.35;66.84;100935.00;5041299;28;20221;-68
2021/08/06 03:25:36;;;;;;;0.80;0.80;;;;;;;12.31;67.70;100941.59;5029692;28;20210;-68
2021/08/06 03:28:05;;;;;;;0.83;0.83;;;;;;;12.33;67.63;100937.81;5038946;28;20226;-68
2021/08/06 03:30:33;;;;;;;1.43;1.00;;;;;;;12.25;68.09;100926.75;5027820;28;20281;-69
2021/08/06 03:33:03;;;;;;;1.40;1.30;;;;;;;12.38;67.53;100930.25;5044578;28;20255;-68
2021/08/06 03:35:32;;;;;;;1.07;1.00;;;;;;;12.48;67.75;100933.13;5027916;28;20259;-68
2021/08/06 03:38:00;;;;;;;2.20;1.10;;;;;;;12.49;68.38;100928.59;5044316;28;20213;-69
2021/08/06 03:40:29;;;;;;;1.07;0.87;;;;;;;12.65;67.86;100935.47;5027645;28;20217;-69
2021/08/06 03:42:57;;;;;;;1.10;1.00;;;;;;;12.76;67.24;100934.66;5041195;28;20240;-68
2021/08/06 03:45:25;;;;;;;0.97;0.97;;;;;;;12.85;69.00;100939.38;5025023;28;20623;-69
2021/08/06 03:47:54;;;;;;;1.43;1.03;;;;;;;12.98;68.15;100936.63;5029013;28;20670;-69
2021/08/06 03:50:23;;;;;;;0.90;0.90;;;;;;;13.15;67.44;100933.53;5027893;28;20221;-69
2021/08/06 03:52:53;;;;;;;1.27;1.17;;;;;;;13.29;68.34;100938.78;5039386;28;20256;-69
2021/08/06 03:55:21;;;;;;;2.30;1.07;;;;;;;13.31;67.13;100919.78;5019218;28;20228;-68
2021/08/06 03:57:51;;;;;;;0.97;0.90;;;;;;;13.58;67.34;100950.03;5044970;28;20196;-69
2021/08/06 04:00:20;;;;;;;1.20;1.10;;;;;;;13.52;67.63;100919.97;5031791;28;20205;-69
2021/08/06 04:02:49;;;;;;;1.20;1.10;;;;;;;13.82;67.43;100951.81;5031276;28;20201;-69
2021/08/06 04:05:18;;;;;;;1.00;1.00;;;;;;;13.91;67.31;100954.66;5031343;28;20305;-69
2021/08/06 04:07:48;;;;;;;0.87;0.87;;;;;;;13.59;67.90;100878.91;5046233;28;20214;-69
2021/08/06 04:10:23;;;;;;;2.73;0.93;;;;;;;14.10;67.87;100947.81;5031472;28;20226;-69
2021/08/06 04:12:51;;;;;;;1.10;1.00;;;;;;;14.18;68.05;100945.38;5045570;28;20212;-68
2021/08/06 04:15:20;;;;;;;1.43;1.10;;;;;;;14.20;67.53;100940.69;5031420;28;20214;-69
2021/08/06 04:17:48;;;;;;;1.47;1.10;;;;;;;14.33;68.32;100946.81;5031065;28;20679;-67
2021/08/06 04:20:17;;;;;;;1.47;1.20;;;;;;;14.39;68.13;100948.16;5034218;28;20256;-68
2021/08/06 04:22:45;;;;;;;1.77;1.00;;;;;;;14.49;67.45;100950.06;5031082;28;20229;-68
2021/08/06 04:25:14;;;;;;;0.90;0.90;;;;;;;14.54;67.34;100945.13;5044578;28;20216;-68
2021/08/06 04:27:43;;;;;;;1.20;1.10;;;;;;;14.61;68.14;100945.50;5039361;28;20203;-68
2021/08/06 04:30:15;;;;;;;1.13;1.03;;;;;;;14.42;67.36;100905.56;5031750;28;20308;-69
2021/08/06 04:32:43;;;;;;;0.90;0.90;;;;;;;14.79;66.93;100954.81;5031148;28;20264;-68
2021/08/06 04:35:12;;;;;;;1.23;1.13;;;;;;;14.87;66.94;100935.25;5030878;28;20225;-68
2021/08/06 04:37:48;;;;;;;0.90;0.90;;;;;;;14.97;67.80;100933.47;5031211;28;20215;-68
2021/08/06 04:40:18;;;;;;;1.30;1.20;;;;;;;15.02;68.53;100933.97;5030561;28;20202;-69
2021/08/06 04:42:48;;;;;;;1.20;0.97;;;;;;;15.04;68.10;100917.63;5030823;28;20252;-69
2021/08/06 04:45:16;;;;;;;1.00;1.00;;;;;;;15.21;68.09;100927.88;5047486;28;20211;-69
2021/08/06 04:47:46;;;;;;;1.07;1.07;;;;;;;15.29;69.33;100938.91;5023842;28;20704;-69
2021/08/06 04:50:20;;;;;;;1.03;0.97;;;;;;;15.35;69.22;100927.59;5025732;28;20206;-69
2021/08/06 04:52:56;;;;;;;1.47;1.10;;;;;;;15.36;69.03;100902.25;5046721;28;20198;-68
2021/08/06 04:55:25;;;;;;;1.43;1.10;;;;;;;15.39;69.00;100895.69;5030470;28;20218;-69
2021/08/06 04:57:56;;;;;;;0.80;0.80;;;;;;;15.60;69.18;100920.94;5046943;28;20203;-69
2021/08/06 05:00:25;;;;;;;0.90;0.90;;;;;;;15.69;68.42;100909.34;5030144;28;20211;-69
2021/08/06 05:02:53;;;;;;;1.07;0.90;;;;;;;15.77;68.44;100909.53;5030113;28;20222;-69
2021/08/06 05:05:23;;;;;;;0.93;0.93;;;;;;;15.87;68.42;100909.56;5030104;28;20195;-69
2021/08/06 05:07:53;;;;;;;1.40;1.00;;;;;;;15.99;67.42;100904.94;5030087;28;20260;-69
2021/08/06 05:10:25;;;;;;;1.23;0.90;;;;;;;16.07;68.73;100905.13;5029943;28;20203;-69
2021/08/06 05:12:55;;;;;;;1.00;1.00;;;;;;;15.92;70.10;100866.72;5031117;28;20655;-69
2021/08/06 05:15:25;;;;;;;1.10;1.00;;;;;;;16.25;71.43;100894.50;5046708;28;20581;-69
2021/08/06 05:17:58;;;;;;;0.87;0.87;;;;;;;16.42;70.88;100889.28;5029872;28;20206;-69
2021/08/06 05:20:26;;;;;;;1.07;1.07;;;;;;;16.63;70.93;100888.34;5029966;28;20199;-69
2021/08/06 05:22:55;;;;;;;0.90;0.90;;;;;;;16.77;72.71;100883.41;5029660;28;20207;-69
2021/08/06 05:25:24;;;;;;;1.17;1.10;;;;;;;16.94;71.00;100887.28;5030203;28;20205;-69
2021/08/06 05:27:52;;;;;;;1.13;1.00;;;;;;;17.08;70.85;100889.56;5029753;28;20280;-68
2021/08/06 05:30:22;;;;;;;1.20;1.10;;;;;;;17.24;71.03;100890.88;5042579;28;20735;-68
2021/08/06 05:32:53;;;;;;;1.20;1.10;;;;;;;17.38;71.22;100885.84;5038767;28;20211;-68
2021/08/06 05:35:24;;;;;;;1.00;1.00;;;;;;;17.52;70.72;100883.69;5046104;28;20218;-69
2021/08/06 05:37:56;;;;;;;2.20;0.80;;;;;;;17.76;70.93;100873.25;5046341;28;20210;-68
2021/08/06 05:40:24;;;;;;;0.80;0.80;;;;;;;17.96;70.62;100879.47;5029743;28;20260;-69
2021/08/06 05:42:53;;;;;;;1.70;1.00;;;;;;;18.16;69.60;100874.81;5029460;28;20252;-68
2021/08/06 05:45:25;;;;;;;1.00;1.00;;;;;;;18.38;69.38;100884.47;5042783;28;20211;-68
2021/08/06 05:47:55;;;;;;;1.07;1.07;;;;;;;18.59;69.21;100874.16;5020467;28;20199;-69
2021/08/06 05:50:29;;;;;;;2.67;1.00;;;;;;;18.71;68.56;100881.16;5029317;28;20308;-68
2021/08/06 05:52:57;;;;;;;1.00;0.80;;;;;;;18.65;67.49;100875.44;5029270;28;20206;-68
2021/08/06 05:55:25;;;;;;;2.03;0.90;;;;;;;18.69;66.78;100869.56;5042825;28;20215;-68
2021/08/06 05:58:04;;;;;;;1.30;0.80;;;;;;;18.61;66.36;100874.84;5028975;28;20663;-68
2021/08/06 06:00:34;;;;;;;0.80;0.80;;;;;;;18.48;66.59;100879.81;5030447;28;20206;-69
2021/08/06 06:03:23;;;;;;;0.97;0.97;;;;;;;18.40;67.08;100888.75;5030029;28;20218;-68
2021/08/06 06:06:23;;;;;;;1.20;1.10;;;;;;;18.23;66.90;100889.53;5007651;28;20210;-68
2021/08/06 06:08:55;;;;;;;0.87;0.87;;;;;;;18.34;67.24;100893.91;5030618;28;20285;-68
2021/08/06 06:11:24;;;;;;;2.27;1.00;;;;;;;18.24;67.65;100886.66;5030269;28;20245;-68
2021/08/06 06:13:52;;;;;;;1.80;0.90;;;;;;;18.39;66.89;100894.34;5028806;28;20202;-68
2021/08/06 06:16:22;;;;;;;1.10;0.90;;;;;;;18.71;66.29;100891.19;5029992;28;20284;-69
2021/08/06 06:18:50;;;;;;;1.53;1.00;;;;;;;18.79;66.08;100873.06;5028906;28;20207;-68
2021/08/06 06:21:18;;;;;;;2.23;1.20;;;;;;;19.17;65.20;100887.38;5028085;28;20740;-68
2021/08/06 06:23:46;;;;;;;0.90;0.90;;;;;;;19.11;64.35;100893.47;5030254;28;20225;-68
2021/08/06 06:26:14;;;;;;;0.70;0.70;;;;;;;19.11;64.38;100885.28;5045523;28;20245;-69
2021/08/06 06:28:43;;;;;;;0.87;0.87;;;;;;;19.22;63.90;100885.03;5028667;28;20261;-68
2021/08/06 06:31:11;;;;;;;2.60;1.03;;;;;;;19.27;64.33;100879.13;5029541;28;20705;-68
2021/08/06 06:33:41;;;;;;;1.20;0.93;;;;;;;19.36;64.38;100886.38;5028605;28;20199;-68
2021/08/06 06:36:09;;;;;;;1.80;1.10;;;;;;;19.63;64.29;100885.44;5028270;28;20935;-68
2021/08/06 06:38:38;;;;;;;0.90;0.90;;;;;;;19.99;63.34;100889.75;5028438;28;20206;-68
2021/08/06 06:41:06;;;;;;;1.00;0.90;;;;;;;19.94;63.12;100826.69;5019898;28;20207;-68
2021/08/06 06:43:36;;;;;;;1.10;1.03;;;;;;;20.58;62.33;100888.03;5041075;28;20203;-69
2021/08/06 06:46:04;;;;;;;0.93;0.93;;;;;;;20.94;61.59;100885.91;5044919;28;20203;-68
2021/08/06 06:48:33;;;;;;;2.63;1.00;;;;;;;21.05;60.54;100887.44;5028232;28;20256;-68
2021/08/06 06:51:08;;;;;;;1.00;1.00;;;;;;;21.25;58.43;100882.56;5046979;28;20264;-68
2021/08/06 06:53:36;;;;;;;0.90;0.90;;;;;;;21.27;57.88;100884.09;5029865;28;20264;-70
2021/08/06 06:56:06;;;;;;;1.10;0.97;;;;;;;21.32;58.03;100876.25;5028044;28;20228;-68
2021/08/06 06:58:36;;;;;;;0.97;0.87;;;;;;;21.62;59.09;100882.03;5044899;28;20325;-69
2021/08/06 07:01:04;;;;;;;1.63;1.10;;;;;;;21.72;58.26;100884.59;5029231;28;20206;-69
2021/08/06 07:03:33;;;;;;;0.90;0.90;;;;;;;21.70;57.55;100877.41;5028150;28;20205;-69
2021/08/06 07:06:02;;;;;;;0.97;0.83;;;;;;;21.68;57.11;100884.09;5044668;28;20226;-66
2021/08/06 07:08:32;;;;;;;0.87;0.87;;;;;;;21.84;56.33;100881.34;5028235;28;20198;-68
2021/08/06 07:11:00;;;;;;;1.00;1.00;;;;;;;21.79;56.75;100882.91;5029647;28;20195;-68
2021/08/06 07:13:28;;;;;;;1.70;1.00;;;;;;;21.78;56.04;100873.84;5015840;28;20865;-68
2021/08/06 07:15:56;;;;;;;1.10;1.00;;;;;;;21.90;56.26;100877.91;5027689;28;20236;-69
2021/08/06 07:18:26;;;;;;;1.30;1.00;;;;;;;21.95;56.11;100880.13;5029665;28;20202;-69
2021/08/06 07:20:59;;;;;;;1.00;1.00;;;;;;;21.89;56.20;100864.41;5029165;28;20728;-68
2021/08/06 07:23:27;;;;;;;0.83;0.83;;;;;;;22.08;55.48;100874.16;5044435;28;20285;-68
2021/08/06 07:25:57;;;;;;;1.00;0.90;;;;;;;22.14;56.44;100874.28;5027872;28;20206;-68
2021/08/06 07:28:26;;;;;;;2.43;1.10;;;;;;;22.00;56.16;100878.56;5029434;28;20726;-69
2021/08/06 07:30:54;;;;;;;1.33;1.17;;;;;;;21.88;55.72;100871.75;5027772;28;20707;-69
2021/08/06 07:33:22;;;;;;;1.50;0.97;;;;;;;21.95;55.45;100869.16;5031505;28;20206;-69
2021/08/06 07:35:50;;;;;;;0.90;0.90;;;;;;;21.75;55.03;100868.72;5031691;28;20222;-68
2021/08/06 07:38:18;;;;;;;0.93;0.93;;;;;;;21.87;55.24;100872.78;5031722;28;20619;-68
2021/08/06 07:40:47;;;;;;;0.97;0.93;;;;;;;21.94;52.24;100840.13;5033275;28;20229;-68
2021/08/06 07:43:16;;;;;;;5.13;1.27;;;;;;;21.90;50.74;100866.97;5033369;28;20195;-68
2021/08/06 07:45:46;;;;;;;1.10;1.00;;;;;;;22.17;51.57;100856.66;5031956;28;20490;-68
2021/08/06 07:48:16;;;;;;;2.07;0.93;;;;;;;22.49;51.61;100858.41;5044913;28;20207;-68
2021/08/06 07:50:44;;;;;;;1.07;1.00;;;;;;;22.80;50.28;100863.88;5030633;28;20214;-68
2021/08/06 07:53:13;;;;;;;2.37;1.20;;;;;;;22.75;48.03;100869.06;5031485;28;20674;-68
2021/08/06 07:55:41;;;;;;;1.20;1.10;;;;;;;22.58;48.96;100865.53;5032873;28;20218;-69
2021/08/06 07:58:09;;;;;;;0.93;0.87;;;;;;;22.67;50.02;100861.75;5032600;28;20201;-68
2021/08/06 08:00:39;;;;;;;1.10;1.00;;;;;;;22.74;48.79;100848.19;5028207;28;20737;-69
2021/08/06 08:03:07;;;;;;;1.17;0.97;;;;;;;22.96;49.04;100858.34;5043793;28;20238;-68
2021/08/06 08:05:38;;;;;;;1.20;1.07;;;;;;;22.92;48.69;100852.34;5023676;28;20203;-68
2021/08/06 08:08:09;;;;;;;1.63;1.30;;;;;;;22.64;49.67;100859.34;5047567;28;20203;-69
2021/08/06 08:10:38;;;;;;;1.10;1.00;;;;;;;22.65;48.91;100871.16;5047980;28;20199;-69
2021/08/06 08:13:12;;;;;;;1.70;1.00;;;;;;;22.70;47.36;100863.28;5047367;28;20662;-68
2021/08/06 08:15:45;;;;;;;2.27;1.00;;;;;;;22.93;47.64;100877.88;5031241;28;20265;-68
2021/08/06 08:18:13;;;;;;;3.80;1.20;;;;;;;23.15;47.47;100868.81;5032000;28;20210;-68
2021/08/06 08:20:42;;;;;;;1.90;1.00;;;;;;;23.13;47.83;100876.38;5031278;28;20217;-69
2021/08/06 08:23:11;;;;;;;1.07;1.00;;;;;;;22.99;46.58;100862.63;5030716;28;20206;-68
2021/08/06 08:25:40;;;;;;;2.93;0.90;;;;;;;22.86;45.88;100863.19;5031140;28;20652;-70
2021/08/06 08:28:08;;;;;;;2.10;0.93;;;;;;;22.62;46.59;100875.94;5047109;28;20208;-69
2021/08/06 08:30:38;;;;;;;1.50;1.13;;;;;;;22.66;46.00;100867.41;5030786;28;20299;-69
2021/08/06 08:33:10;;;;;;;1.30;1.20;;;;;;;22.31;46.27;100864.97;5030553;28;20203;-69
2021/08/06 08:35:38;;;;;;;0.90;0.90;;;;;;;22.25;45.76;100865.69;5032527;28;20198;-68
2021/08/06 08:38:06;;;;;;;0.87;0.87;;;;;;;22.31;43.50;100875.06;5030822;28;20280;-69
2021/08/06 08:40:34;;;;;;;1.83;1.03;;;;;;;22.18;44.28;100867.44;5026627;28;20195;-68
2021/08/06 08:43:03;;;;;;;3.37;0.90;;;;;;;21.74;45.79;100823.28;5038354;28;20702;-68
2021/08/06 08:45:31;;;;;;;0.80;0.80;;;;;;;22.07;46.32;100839.63;5046970;28;20195;-69
2021/08/06 08:47:59;;;;;;;1.80;1.00;;;;;;;22.44;45.98;100861.69;5032000;28;20516;-68
2021/08/06 08:50:29;;;;;;;0.97;0.80;;;;;;;22.46;46.60;100866.97;5030528;28;20205;-69
2021/08/06 08:53:02;;;;;;;1.33;0.77;;;;;;;22.36;46.43;100872.69;5030438;28;20691;-69
2021/08/06 08:55:30;;;;;;;0.80;0.80;;;;;;;22.21;46.21;100858.88;5027397;28;20203;-69
2021/08/06 08:57:59;;;;;;;0.90;0.90;;;;;;;22.14;46.75;100854.28;5040926;28;20758;-69
2021/08/06 09:00:28;;;;;;;0.77;0.77;;;;;;;22.46;46.45;100861.50;5038318;28;20207;-68
2021/08/06 09:02:57;;;;;;;3.43;0.83;;;;;;;22.39;46.40;100801.16;5030085;28;20297;-68
2021/08/06 09:05:28;;;;;;;0.80;0.80;;;;;;;22.74;46.49;100843.56;5021759;28;20286;-68
2021/08/06 09:08:18;;;;;;;1.10;0.83;;;;;;;22.84;46.31;100849.69;5043899;28;20198;-69
2021/08/06 09:11:24;;;;;;;0.90;0.90;;;;;;;23.05;46.79;100862.72;5031575;28;20217;-69
2021/08/06 09:14:24;;;;;;;0.83;0.83;;;;;;;23.08;46.44;100850.56;5031206;28;20380;-68
2021/08/06 09:16:58;;;;;;;0.87;0.87;;;;;;;23.34;47.09;100845.56;5031239;28;20242;-68
2021/08/06 09:19:27;;;;;;;1.20;1.00;;;;;;;23.65;44.29;100847.34;5031280;28;20631;-69
2021/08/06 09:22:09;;;;;;;0.73;0.70;;;;;;;23.72;43.72;100842.81;5030705;28;20660;-69
2021/08/06 09:24:57;;;;;;;0.80;0.80;;;;;;;23.76;43.45;100852.38;5031092;28;20213;-68
2021/08/06 09:27:25;;;;;;;0.80;0.80;;;;;;;23.70;44.14;100822.97;5031110;28;20604;-70
2021/08/06 09:29:53;;;;;;;4.40;1.00;;;;;;;23.93;42.96;100844.84;5029502;28;20230;-69
2021/08/06 09:32:23;;;;;;;0.80;0.80;;;;;;;24.04;42.96;100855.34;5019537;28;20278;-69
2021/08/06 09:34:52;;;;;;;2.27;1.00;;;;;;;24.14;42.36;100842.16;5031143;28;20206;-69
2021/08/06 09:37:22;;;;;;;0.97;0.90;;;;;;;24.26;43.35;100842.56;5024343;28;20210;-70
2021/08/06 09:39:53;;;;;;;1.30;1.00;;;;;;;24.23;41.85;100848.44;5024558;28;20225;-69
2021/08/06 09:42:23;;;;;;;1.23;1.10;;;;;;;24.28;41.33;100821.28;5032599;28;20202;-69
2021/08/06 09:45:01;;;;;;;0.73;0.60;;;;;;;23.87;41.93;100840.06;5030777;28;20691;-69
2021/08/06 09:47:30;;;;;;;0.80;0.80;;;;;;;24.02;41.09;100846.44;5017418;28;20687;-70
2021/08/06 09:50:01;;;;;;;0.80;0.80;;;;;;;24.13;41.73;100851.44;5020438;28;20215;-68
2021/08/06 09:52:32;;;;;;;1.03;0.83;;;;;;;23.94;41.47;100846.53;5026179;28;20825;-68
2021/08/06 09:55:24;;;;;;;0.90;0.90;;;;;;;24.15;42.50;100846.63;5030322;28;20205;-69
2021/08/06 09:57:53;;;;;;;1.00;0.97;;;;;;;24.24;41.99;100848.25;5030496;28;20221;-69
2021/08/06 10:00:24;;;;;;;2.13;0.80;;;;;;;24.23;41.61;100848.44;5030809;28;20198;-69
2021/08/06 10:02:53;;;;;;;1.90;0.80;;;;;;;24.07;41.67;100846.72;5030558;28;20199;-68
2021/08/06 10:05:25;;;;;;;0.90;0.90;;;;;;;24.10;41.68;100838.09;5030558;28;20213;-69
2021/08/06 10:07:54;;;;;;;0.90;0.90;;;;;;;24.43;41.69;100836.69;5030318;28;20672;-69
2021/08/06 10:10:26;;;;;;;1.77;0.77;;;;;;;24.62;41.79;100842.63;5030412;28;20198;-69
2021/08/06 10:12:55;;;;;;;0.87;0.87;;;;;;;24.64;39.04;100841.38;5030218;28;20207;-68
2021/08/06 10:15:24;;;;;;;1.33;0.90;;;;;;;24.84;39.29;100833.38;5030443;28;20198;-68
2021/08/06 10:17:54;;;;;;;2.50;0.90;;;;;;;24.63;38.62;100836.09;5030170;28;20218;-70
2021/08/06 10:20:24;;;;;;;0.90;0.90;;;;;;;24.59;38.33;100843.00;5029994;28;20205;-69
2021/08/06 10:22:53;;;;;;;1.30;1.10;;;;;;;24.19;38.30;100806.78;5030622;28;20678;-69
2021/08/06 10:25:23;;;;;;;0.80;0.80;;;;;;;24.22;39.83;100842.09;5016456;28;20277;-69
2021/08/06 10:27:53;;;;;;;1.87;0.80;;;;;;;24.20;38.58;100816.72;5028718;28;20213;-69
2021/08/06 10:30:23;;;;;;;1.47;1.00;;;;;;;24.43;39.34;100835.84;5029833;28;20580;-69
2021/08/06 10:33:09;;;;;;;0.90;0.90;;;;;;;24.59;39.07;100835.63;5029902;28;20207;-69
2021/08/06 10:35:45;;;;;;;4.63;0.90;;;;;;;24.70;37.75;100834.25;5030385;28;20204;-69
2021/08/06 10:38:14;;;;;;;0.83;0.80;;;;;;;24.53;38.35;100813.56;5029586;28;20695;-69
2021/08/06 10:41:15;;;;;;;0.90;0.90;;;;;;;24.66;38.42;100847.53;5016675;28;20229;-69
2021/08/06 10:44:02;;;;;;;1.13;0.80;;;;;;;24.41;37.37;100789.34;5029738;28;20248;-69
2021/08/06 10:46:58;;;;;;;1.13;0.90;;;;;;;24.42;39.06;100842.38;5029582;28;20602;-69
2021/08/06 10:49:28;;;;;;;0.93;0.90;;;;;;;24.16;38.26;100823.63;5029229;28;20205;-69
2021/08/06 10:52:15;;;;;;;1.20;1.10;;;;;;;24.07;40.25;100817.38;5029335;28;20215;-68
2021/08/06 10:54:44;;;;;;;0.80;0.80;;;;;;;23.87;40.95;100815.38;5029443;28;20205;-68
2021/08/06 10:57:37;;;;;;;0.87;0.87;;;;;;;23.91;42.09;100808.50;5029146;28;20213;-69
2021/08/06 11:00:08;;;;;;;1.00;1.00;;;;;;;24.09;42.94;100803.47;5017797;28;20206;-69
2021/08/06 11:02:53;;;;;;;1.10;0.80;;;;;;;24.44;44.28;100807.31;5029413;28;20202;-69
2021/08/06 11:05:41;;;;;;;0.90;0.80;;;;;;;24.39;41.26;100807.91;5028161;28;20201;-69
2021/08/06 11:08:55;;;;;;;0.93;0.83;;;;;;;24.23;41.53;100813.59;5028781;28;20567;-69
2021/08/06 11:11:42;;;;;;;0.60;0.60;;;;;;;24.14;41.10;100807.34;5029139;28;20290;-69
2021/08/06 11:14:11;;;;;;;0.80;0.80;;;;;;;24.12;41.11;100798.44;5027821;28;20212;-69
2021/08/06 11:17:01;;;;;;;1.03;0.70;;;;;;;24.36;41.83;100791.81;5029122;28;20202;-69
2021/08/06 11:19:31;;;;;;;0.80;0.80;;;;;;;24.37;40.58;100810.00;5029316;28;20612;-69
2021/08/06 11:22:00;;;;;;;0.87;0.87;;;;;;;24.07;40.92;100805.56;5029133;28;20194;-69
2021/08/06 11:24:36;;;;;;;0.80;0.80;;;;;;;23.99;40.77;100817.50;5027958;28;20590;-69
2021/08/06 11:27:04;;;;;;;0.80;0.80;;;;;;;24.00;41.38;100818.34;5028866;28;20212;-68
2021/08/06 11:29:32;;;;;;;0.80;0.80;;;;;;;23.91;42.42;100814.84;5027513;28;20238;-69
2021/08/06 11:32:05;;;;;;;2.43;0.90;;;;;;;23.65;41.31;100814.44;5040967;28;20206;-69
2021/08/06 11:34:49;;;;;;;0.80;0.80;;;;;;;23.36;41.46;100793.28;5021170;28;20641;-69
2021/08/06 11:37:18;;;;;;;1.87;0.90;;;;;;;23.06;43.35;100776.75;5013837;28;20670;-69
2021/08/06 11:40:05;;;;;;;0.80;0.80;;;;;;;23.40;42.81;100822.88;5029445;28;20276;-68
2021/08/06 11:42:33;;;;;;;1.50;0.80;;;;;;;23.48;43.41;100813.72;5029164;28;20684;-69
2021/08/06 11:45:02;;;;;;;1.03;0.80;;;;;;;23.60;42.88;100822.38;5028744;28;20198;-69